This is the latest recevied weather packets stored in our database for station/object IZ1UQG-N2. If no packets are shown the sender has not sent any weather packets the latest 1 day(s).
| Time | Temp. | Humidity | Pressure | Rain* | Wind** | Luminosity | Snow |
|---|---|---|---|---|---|---|---|
| 1778083491 | 14.44° C | 69% | 1005.6 hPa | 0 mm | - | 200 W/m² | - |
| 1778052383 | 11.67° C | 93% | 1006.5 hPa | 0 mm | - | 21 W/m² | - |
| 1778052340 | 11.67° C | 93% | 1006.5 hPa | 0 mm | - | 23 W/m² | - |
| 1778052262 | 11.67° C | 93% | 1006.6 hPa | 0 mm | - | 26 W/m² | - |
| 1778051792 | 11.67° C | 93% | 1006.7 hPa | 0 mm | - | 11 W/m² | - |
| 1778051672 | 11.67° C | 93% | 1006.7 hPa | 0 mm | - | 11 W/m² | - |
| 1778051440 | 11.67° C | 93% | 1006.7 hPa | 0 mm | - | 11 W/m² | - |
| 1778051432 | 11.67° C | 93% | 1006.7 hPa | 0 mm | - | 11 W/m² | - |
| 1778051373 | 11.67° C | 93% | 1006.7 hPa | 0 mm | - | 11 W/m² | - |
| 1778051312 | 11.67° C | 93% | 1006.7 hPa | 0 mm | - | 11 W/m² | - |
| 1778051192 | 11.67° C | 93% | 1006.8 hPa | 0 mm | - | 12 W/m² | - |
| 1778051132 | 11.67° C | 93% | 1006.8 hPa | 0 mm | - | 11 W/m² | - |
| 1778051081 | 11.67° C | 93% | 1006.8 hPa | 0 mm | - | 11 W/m² | - |
| 1778051073 | 11.67° C | 93% | 1006.8 hPa | 0 mm | - | 11 W/m² | - |
| 1778050952 | 11.67° C | 93% | 1006.8 hPa | 0 mm | - | 12 W/m² | - |
| 1778050900 | 11.67° C | 93% | 1006.9 hPa | 0 mm | - | 12 W/m² | - |
| 1778050892 | 11.67° C | 93% | 1006.9 hPa | 0 mm | - | 12 W/m² | - |
| 1778050832 | 11.67° C | 93% | 1006.7 hPa | 0 mm | - | 12 W/m² | - |
| 1778050772 | 11.67° C | 93% | 1006.8 hPa | 0 mm | - | 14 W/m² | - |
| 1778050721 | 11.67° C | 93% | 1006.8 hPa | 0 mm | - | 16 W/m² | - |
| 1778050713 | 11.67° C | 93% | 1006.8 hPa | 0 mm | - | 16 W/m² | - |
| 1778050652 | 11.67° C | 93% | 1006.7 hPa | 0 mm | - | 16 W/m² | - |
| 1778050592 | 11.67° C | 93% | 1006.7 hPa | 0 mm | - | 16 W/m² | - |
| 1778050472 | 11.67° C | 93% | 1006.7 hPa | 0 mm | - | 12 W/m² | - |
| 1778050361 | 11.67° C | 93% | 1006.9 hPa | 0 mm | - | 14 W/m² | - |
* Rain latest hour (hover to see other rain measurements)
** Current wind speed in m/s (hover to see current wind gust speed)